Time;durP1;ratioP1;P1;durP2;ratioP2;P2;SDS_P1;SDS_P2;PMS_P1;PMS_P2;Temp;Humidity;BMP_temperature;BMP_pressure;BME280_temperature;BME280_humidity;BME280_pressure;Samples;Min_cycle;Max_cycle;Signal;HPM_P1;HPM_P2
2023/09/07 07:23:13;;;;;;;9.90;8.20;;;;;;;-145.79;67.45;77125.03;5275772;28;20381;-73
2023/09/07 07:25:45;;;;;;;24.13;21.65;;;;;;;-145.79;67.48;77114.44;5272951;28;20564;-72
2023/09/07 07:28:16;;;;;;;9.55;8.07;;;;;;;-145.79;66.97;77108.09;5276664;27;20495;-72
2023/09/07 07:30:48;;;;;;;10.18;7.00;;;;;;;-145.79;67.64;77091.13;5271356;28;20036;-71
2023/09/07 07:33:20;;;;;;;7.93;7.20;;;;;;;-145.79;66.53;77089.00;5275637;27;20055;-70
2023/09/07 07:35:51;;;;;;;24.92;22.40;;;;;;;-145.79;65.96;77080.53;5274728;27;20124;-71
2023/09/07 07:38:22;;;;;;;17.02;14.35;;;;;;;-145.79;65.85;77067.81;5275349;27;20856;-70
2023/09/07 07:40:54;;;;;;;8.25;7.45;;;;;;;-145.79;65.30;77063.59;5275384;27;20013;-69
2023/09/07 07:43:25;;;;;;;8.70;5.95;;;;;;;-145.79;64.55;77050.88;5275920;27;20025;-70
2023/09/07 07:45:56;;;;;;;9.57;6.80;;;;;;;-145.79;64.25;77042.38;5273709;28;20032;-71
2023/09/07 07:48:31;;;;;;;8.80;6.93;;;;;;;-145.79;63.71;77031.78;5268835;28;20041;-72
2023/09/07 07:51:04;;;;;;;7.47;6.78;;;;;;;-145.79;63.56;77025.44;5275732;28;20487;-70
2023/09/07 07:53:35;;;;;;;8.18;5.80;;;;;;;-145.79;63.38;77021.19;5275646;27;20024;-71
2023/09/07 07:56:17;;;;;;;7.07;5.50;;;;;;;-145.79;63.16;77004.25;5272228;28;20029;-71
2023/09/07 07:58:49;;;;;;;7.85;6.00;;;;;;;-145.79;63.22;77002.13;5270404;28;20108;-72
2023/09/07 08:01:21;;;;;;;7.85;5.85;;;;;;;-145.79;62.63;76987.28;5271876;28;20108;-71
2023/09/07 08:03:53;;;;;;;6.85;5.93;;;;;;;-145.79;63.23;76978.81;5274017;28;20395;-71
2023/09/07 08:06:24;;;;;;;6.68;5.88;;;;;;;-145.79;62.59;76966.09;5274014;28;20028;-71
2023/09/07 08:08:56;;;;;;;9.68;5.65;;;;;;;-145.79;62.07;76957.59;5274624;27;20057;-71
2023/09/07 08:11:27;;;;;;;7.03;5.47;;;;;;;-145.79;61.86;76953.38;5273998;28;20163;-72
2023/09/07 08:13:58;;;;;;;6.68;5.93;;;;;;;-145.79;62.46;76940.66;5274344;28;20032;-71
2023/09/07 08:16:30;;;;;;;8.38;6.07;;;;;;;-145.79;61.73;76932.19;5276183;27;20112;-71
2023/09/07 08:19:03;;;;;;;19.10;17.20;;;;;;;-145.79;61.29;76934.28;5275106;27;20089;-71
2023/09/07 08:21:35;;;;;;;45.10;40.20;;;;;;;-145.79;61.51;76921.59;5273585;27;20045;-71
2023/09/07 08:24:06;;;;;;;8.43;6.85;;;;;;;-145.79;61.58;76908.88;5273750;27;20518;-71
2023/09/07 08:26:38;;;;;;;7.32;6.10;;;;;;;-145.79;61.10;76900.38;5274971;28;20768;-71
2023/09/07 08:29:10;;;;;;;6.25;5.65;;;;;;;-145.79;60.80;76887.66;5275316;28;20033;-70
2023/09/07 08:31:44;;;;;;;6.35;5.75;;;;;;;-145.79;60.67;76881.31;5275662;28;20048;-71
2023/09/07 08:34:15;;;;;;;6.78;4.93;;;;;;;-145.79;60.59;76877.06;5262393;27;20437;-72
2023/09/07 08:36:47;;;;;;;6.22;5.28;;;;;;;-145.79;60.60;76860.13;5259768;27;20053;-71
2023/09/07 08:39:20;;;;;;;7.93;5.63;;;;;;;-145.79;60.08;76853.75;5260203;28;20124;-70
2023/09/07 08:41:51;;;;;;;5.57;4.88;;;;;;;-145.79;59.37;76847.41;5251237;28;20115;-70
2023/09/07 08:44:24;;;;;;;8.82;5.43;;;;;;;-145.79;59.61;76830.44;5261025;28;20107;-70
2023/09/07 08:46:57;;;;;;;5.72;4.57;;;;;;;-145.79;59.03;76826.22;5261053;28;20136;-71
2023/09/07 08:49:29;;;;;;;7.40;4.85;;;;;;;-145.79;58.87;76813.50;5260232;28;20455;-71
2023/09/07 08:52:04;;;;;;;6.18;4.72;;;;;;;-145.79;58.41;76798.66;5255864;27;20052;-72
2023/09/07 08:54:36;;;;;;;5.82;4.68;;;;;;;-145.79;58.72;76792.31;5253510;28;20021;-72
2023/09/07 08:57:08;;;;;;;5.85;5.00;;;;;;;-145.79;57.75;76779.59;5256243;28;20035;-72
2023/09/07 08:59:39;;;;;;;6.90;4.45;;;;;;;-145.79;57.06;76769.00;5259249;28;20062;-72
2023/09/07 09:02:11;;;;;;;7.97;4.63;;;;;;;-145.79;56.72;76754.16;5254542;28;20029;-72
2023/09/07 09:04:42;;;;;;;9.50;6.85;;;;;;;-145.79;55.90;76741.44;5260492;28;20040;-71
2023/09/07 09:07:14;;;;;;;5.65;5.15;;;;;;;-145.79;55.77;76728.72;5260931;28;20029;-73
2023/09/07 09:09:46;;;;;;;6.63;5.38;;;;;;;-145.79;56.17;76718.13;5252854;28;20052;-73
2023/09/07 09:12:17;;;;;;;5.43;4.68;;;;;;;-145.79;55.47;76711.75;5257169;28;20511;-71
2023/09/07 09:14:48;;;;;;;5.15;4.53;;;;;;;-145.79;54.62;76711.75;5253368;28;20479;-71
2023/09/07 09:17:19;;;;;;;5.70;4.60;;;;;;;-145.79;54.75;76692.69;5260060;28;20051;-72
2023/09/07 09:19:51;;;;;;;6.15;4.22;;;;;;;-145.79;54.58;76682.09;5260837;28;20032;-72
2023/09/07 09:22:24;;;;;;;6.07;4.38;;;;;;;-145.79;54.22;76665.16;5260490;27;20049;-72
2023/09/07 09:24:55;;;;;;;6.35;4.53;;;;;;;-145.79;54.10;76665.16;5259577;28;20030;-72
2023/09/07 09:27:27;;;;;;;5.85;5.25;;;;;;;-145.79;53.55;76656.66;5258145;28;20077;-71
2023/09/07 09:29:58;;;;;;;6.95;4.60;;;;;;;-145.79;53.52;76637.59;5254818;28;20025;-73
2023/09/07 09:32:29;;;;;;;5.30;4.60;;;;;;;-145.79;53.13;76637.59;5260686;28;20083;-72
2023/09/07 09:35:05;;;;;;;5.72;4.50;;;;;;;-145.79;52.78;76639.72;5260101;28;20029;-71
2023/09/07 09:37:48;;;;;;;5.70;4.03;;;;;;;-145.79;52.89;76614.28;5257866;28;20340;-71
2023/09/07 09:40:20;;;;;;;7.10;4.68;;;;;;;-145.79;52.79;76610.03;5258289;27;20398;-71
2023/09/07 09:42:55;;;;;;;5.60;4.93;;;;;;;-145.79;51.99;76597.31;5257652;28;20538;-73
2023/09/07 09:45:27;;;;;;;5.97;5.03;;;;;;;-145.79;51.38;76584.59;5254133;28;20146;-75
2023/09/07 09:48:02;;;;;;;5.63;4.93;;;;;;;-145.79;51.81;76574.00;5252790;28;20029;-74
2023/09/07 09:50:37;;;;;;;6.40;4.53;;;;;;;-145.79;51.76;76567.66;5253889;28;20047;-72
2023/09/07 09:53:09;;;;;;;4.82;4.40;;;;;;;-145.79;50.83;76567.66;5259332;28;20432;-72
2023/09/07 09:55:41;;;;;;;5.78;4.63;;;;;;;-145.79;50.90;76552.81;5259574;28;20444;-72
2023/09/07 09:58:16;;;;;;;5.47;4.20;;;;;;;-145.79;50.67;76544.34;5259316;28;20052;-72
2023/09/07 10:00:55;;;;;;;5.10;4.60;;;;;;;-145.79;50.09;76538.00;5259549;28;20032;-72
2023/09/07 10:03:37;;;;;;;4.85;4.35;;;;;;;-145.79;50.31;76525.28;5258815;28;20029;-71
2023/09/07 10:06:20;;;;;;;6.03;4.45;;;;;;;-145.79;50.18;76508.31;5259010;28;20040;-72
2023/09/07 10:09:10;;;;;;;7.35;4.20;;;;;;;-145.79;50.48;76504.09;5259802;28;20017;-70
2023/09/07 10:11:41;;;;;;;8.13;4.10;;;;;;;-145.79;50.36;76482.88;5259471;28;20537;-73
2023/09/07 10:14:14;;;;;;;4.53;4.03;;;;;;;-145.79;49.62;76489.25;5258871;28;20033;-73
2023/09/07 10:16:48;;;;;;;7.80;5.00;;;;;;;-145.79;49.38;76459.56;5259739;28;20037;-72
2023/09/07 10:19:22;;;;;;;11.70;10.32;;;;;;;-145.79;48.89;76453.22;5250395;28;20025;-72
2023/09/07 10:21:55;;;;;;;5.05;4.35;;;;;;;-145.79;48.41;76448.97;5257060;28;20437;-73
2023/09/07 10:24:35;;;;;;;7.72;4.40;;;;;;;-145.79;48.33;76440.50;5259505;28;20067;-73
2023/09/07 10:27:08;;;;;;;5.55;4.68;;;;;;;-145.79;47.34;76429.91;5247180;28;20017;-72
2023/09/07 10:29:52;;;;;;;4.30;3.88;;;;;;;-145.79;47.57;76415.06;5253418;27;20025;-72
2023/09/07 10:32:23;;;;;;;5.45;3.85;;;;;;;-145.79;47.17;76398.13;5251421;28;20472;-72
2023/09/07 10:34:55;;;;;;;6.68;4.28;;;;;;;-145.79;46.97;76393.88;5256288;28;20040;-72
2023/09/07 10:37:29;;;;;;;4.28;3.88;;;;;;;-145.79;46.26;76389.66;5254407;28;20036;-74
2023/09/07 10:40:00;;;;;;;6.82;3.78;;;;;;;-145.79;47.00;76376.94;5250944;28;20059;-74
2023/09/07 10:42:33;;;;;;;4.70;4.22;;;;;;;-145.79;47.33;76368.47;5257442;28;20052;-75
2023/09/07 10:45:16;;;;;;;4.75;4.22;;;;;;;-145.79;47.28;76338.78;5259080;28;20452;-74
2023/09/07 10:47:47;;;;;;;5.50;4.38;;;;;;;-145.79;47.30;76340.91;5251329;28;20047;-73
2023/09/07 10:50:18;;;;;;;6.03;4.38;;;;;;;-145.79;46.91;76334.56;5244356;28;20048;-73
2023/09/07 10:52:50;;;;;;;4.85;4.20;;;;;;;-145.79;47.42;76330.31;5259282;27;20483;-74
2023/09/07 10:55:21;;;;;;;8.05;4.25;;;;;;;-145.79;47.06;76330.31;5255527;28;20086;-73
2023/09/07 10:57:53;;;;;;;4.75;3.90;;;;;;;-145.79;47.32;76311.25;5255386;28;20403;-73
2023/09/07 11:00:24;;;;;;;7.07;4.53;;;;;;;-145.79;47.00;76313.34;5259036;28;20028;-72
2023/09/07 11:02:56;;;;;;;5.70;4.10;;;;;;;-145.79;45.83;76298.53;5258126;27;20044;-73
2023/09/07 11:05:27;;;;;;;5.55;3.80;;;;;;;-145.79;45.86;76287.94;5258963;28;20022;-75
2023/09/07 11:08:00;;;;;;;5.10;3.95;;;;;;;-145.79;45.81;76294.28;5259306;28;20021;-75
2023/09/07 11:10:33;;;;;;;5.07;4.40;;;;;;;-145.79;45.73;76287.94;5254645;28;20044;-75
2023/09/07 11:13:05;;;;;;;4.15;3.70;;;;;;;-145.79;45.39;76273.09;5259050;28;20425;-75
2023/09/07 11:15:39;;;;;;;8.40;4.03;;;;;;;-145.79;45.27;76262.50;5257800;28;20025;-74
2023/09/07 11:18:10;;;;;;;4.28;3.97;;;;;;;-145.79;45.67;76249.78;5258886;28;20421;-73
2023/09/07 11:20:41;;;;;;;5.60;3.90;;;;;;;-145.79;45.25;76241.31;5254404;28;20077;-75
2023/09/07 11:23:13;;;;;;;5.22;4.38;;;;;;;-145.79;45.04;76249.78;5249187;27;20040;-76
2023/09/07 11:25:46;;;;;;;6.25;3.60;;;;;;;-145.79;44.52;76228.59;5258729;28;20113;-76
2023/09/07 11:28:19;;;;;;;6.75;3.78;;;;;;;-145.79;44.92;76211.66;5255039;27;20103;-74
2023/09/07 11:30:54;;;;;;;4.95;3.72;;;;;;;-145.79;43.84;76220.13;5256082;28;20074;-75
2023/09/07 11:33:27;;;;;;;4.72;3.83;;;;;;;-145.79;44.06;76198.94;5250984;28;20056;-74
2023/09/07 11:35:58;;;;;;;5.10;3.97;;;;;;;-145.79;43.57;76186.22;5256681;28;20029;-75
2023/09/07 11:38:36;;;;;;;3.95;3.65;;;;;;;-145.79;43.79;76165.03;5254265;28;20358;-75
2023/09/07 11:41:07;;;;;;;4.60;3.70;;;;;;;-145.79;43.16;76177.75;5258106;28;20116;-75
2023/09/07 11:43:39;;;;;;;5.30;3.90;;;;;;;-145.79;43.09;76167.16;5258212;27;20287;-76
2023/09/07 11:46:11;;;;;;;4.40;4.00;;;;;;;-145.79;42.36;76158.66;5252300;27;20041;-75
2023/09/07 11:48:42;;;;;;;4.57;4.15;;;;;;;-145.79;42.84;76139.59;5258805;28;20021;-74
2023/09/07 11:51:13;;;;;;;4.82;3.92;;;;;;;-145.79;42.86;76152.31;5250974;28;20081;-75
2023/09/07 11:53:45;;;;;;;5.65;4.00;;;;;;;-145.79;42.45;76116.28;5258373;28;20078;-75
2023/09/07 11:56:16;;;;;;;3.95;3.55;;;;;;;-145.79;41.37;76122.66;5257974;28;20029;-76
2023/09/07 11:58:47;;;;;;;3.83;3.53;;;;;;;-145.79;41.31;76109.94;5254402;28;20552;-77
2023/09/07 12:01:19;;;;;;;3.88;3.58;;;;;;;-145.79;41.51;76088.75;5257661;28;20395;-76
2023/09/07 12:03:50;;;;;;;5.28;3.75;;;;;;;-145.79;41.07;76088.75;5258268;28;20547;-76
2023/09/07 12:06:23;;;;;;;4.28;3.63;;;;;;;-145.79;41.23;76076.03;5257222;28;20037;-75
2023/09/07 12:09:02;;;;;;;4.65;3.80;;;;;;;-145.79;41.12;76067.56;5258652;28;20100;-82
2023/09/07 12:11:34;;;;;;;3.97;3.60;;;;;;;-145.79;40.95;76048.47;5257629;28;20065;-81
2023/09/07 12:14:05;;;;;;;3.78;3.20;;;;;;;-145.79;40.74;76042.13;5261974;28;20446;-83
2023/09/07 12:16:36;;;;;;;5.15;3.78;;;;;;;-145.79;41.29;76059.09;5261839;28;20134;-83
2023/09/07 12:19:08;;;;;;;5.72;3.40;;;;;;;-145.79;41.16;76029.41;5258131;28;20025;-81
2023/09/07 12:21:41;;;;;;;4.40;4.00;;;;;;;-145.79;40.85;76025.19;5261662;28;20430;-82
2023/09/07 12:24:13;;;;;;;5.22;4.28;;;;;;;-145.79;40.70;76018.81;5261938;28;20027;-83
2023/09/07 12:26:44;;;;;;;4.82;4.35;;;;;;;-145.79;41.06;76018.81;5257114;28;20022;-81
2023/09/07 12:29:16;;;;;;;6.70;4.00;;;;;;;-145.79;40.71;76008.22;5263604;28;20029;-79
2023/09/07 12:31:47;;;;;;;4.85;3.90;;;;;;;-145.79;40.90;76016.69;5261745;28;20028;-77
2023/09/07 12:34:18;;;;;;;6.20;3.80;;;;;;;-145.79;40.92;75989.16;5260762;28;20025;-76
2023/09/07 12:36:50;;;;;;;4.63;3.72;;;;;;;-145.79;40.51;75970.09;5256364;27;20062;-76
2023/09/07 12:39:21;;;;;;;5.25;4.00;;;;;;;-145.79;40.54;75948.91;5261467;28;20031;-76
2023/09/07 12:41:52;;;;;;;6.38;4.07;;;;;;;-145.79;40.86;75953.13;5258948;28;20104;-76
2023/09/07 12:44:24;;;;;;;13.00;4.10;;;;;;;-145.79;39.82;75944.66;5260051;28;20052;-77
2023/09/07 12:46:55;;;;;;;5.10;4.10;;;;;;;-145.79;39.42;75948.91;5257124;28;20029;-77
2023/09/07 12:49:27;;;;;;;5.78;3.78;;;;;;;-145.79;39.72;75951.00;5260137;28;20391;-77
2023/09/07 12:51:58;;;;;;;5.32;3.80;;;;;;;-145.79;39.70;75923.47;5261046;28;20060;-77
2023/09/07 12:54:29;;;;;;;4.68;4.20;;;;;;;-145.79;39.39;75921.34;5253043;28;20033;-76
2023/09/07 12:57:01;;;;;;;4.43;4.00;;;;;;;-145.79;39.68;75919.22;5261323;28;20025;-77
2023/09/07 12:59:32;;;;;;;5.03;3.70;;;;;;;-145.79;39.39;75915.00;5260261;28;20025;-77
2023/09/07 13:02:04;;;;;;;6.63;4.20;;;;;;;-145.79;38.87;75891.69;5260154;28;20025;-77
2023/09/07 13:04:36;;;;;;;4.32;3.92;;;;;;;-145.79;39.51;75885.34;5260906;28;20092;-77
2023/09/07 13:07:07;;;;;;;4.70;4.30;;;;;;;-145.79;39.61;75876.84;5260969;28;20471;-75
2023/09/07 13:09:39;;;;;;;4.57;4.18;;;;;;;-145.79;39.45;75874.75;5258684;28;20034;-77
2023/09/07 13:12:10;;;;;;;3.65;3.35;;;;;;;-145.79;39.27;75851.44;5258925;27;20103;-74
2023/09/07 13:14:41;;;;;;;4.50;3.88;;;;;;;-145.79;38.55;75845.06;5260259;28;20047;-76
2023/09/07 13:17:14;;;;;;;4.90;4.05;;;;;;;-145.79;38.32;75842.97;5260430;27;20039;-75
2023/09/07 13:19:48;;;;;;;4.05;3.65;;;;;;;-145.79;37.94;75859.91;5260770;28;20017;-76
2023/09/07 13:22:20;;;;;;;4.30;3.90;;;;;;;-145.79;38.18;75840.84;5257110;28;20048;-76
2023/09/07 13:24:52;;;;;;;4.35;3.95;;;;;;;-145.79;38.08;75840.84;5259072;28;20029;-76
2023/09/07 13:27:25;;;;;;;6.35;3.92;;;;;;;-145.79;38.02;75813.28;5259497;28;20025;-77
2023/09/07 13:29:57;;;;;;;6.20;3.78;;;;;;;-145.79;38.00;75804.81;5259939;28;20032;-77
2023/09/07 13:32:29;;;;;;;7.13;3.55;;;;;;;-145.79;37.92;75800.56;5260442;28;20025;-77
2023/09/07 13:35:01;;;;;;;4.53;4.10;;;;;;;-145.79;37.65;75783.63;5260450;28;20025;-77
2023/09/07 13:37:32;;;;;;;5.55;4.45;;;;;;;-145.79;38.11;75762.44;5259346;28;20028;-81
2023/09/07 13:40:04;;;;;;;4.53;3.90;;;;;;;-145.79;37.94;75777.28;5260249;28;20112;-82
2023/09/07 13:42:36;;;;;;;6.93;4.68;;;;;;;-145.79;37.52;75783.63;5256359;28;20539;-81
2023/09/07 13:45:07;;;;;;;6.32;3.92;;;;;;;-145.79;37.69;75783.63;5252427;28;20108;-83
2023/09/07 13:47:39;;;;;;;15.50;14.00;;;;;;;-145.79;37.48;75760.31;5261895;28;20021;-77
2023/09/07 13:50:10;;;;;;;7.95;6.50;;;;;;;-145.79;37.70;75768.78;5259292;28;20033;-77
2023/09/07 13:52:41;;;;;;;6.38;4.72;;;;;;;-145.79;37.75;75760.31;5259630;28;20027;-77
2023/09/07 13:55:13;;;;;;;4.90;4.40;;;;;;;-145.79;37.58;75766.69;5260442;28;20029;-77
2023/09/07 13:57:44;;;;;;;4.60;3.80;;;;;;;-145.79;37.27;75747.59;5258979;28;20106;-78
2023/09/07 14:00:16;;;;;;;6.88;4.00;;;;;;;-145.79;37.86;75734.91;5259567;28;20021;-79
2023/09/07 14:02:47;;;;;;;4.82;4.43;;;;;;;-145.79;37.29;75751.84;5253208;28;20058;-78
2023/09/07 14:05:18;;;;;;;4.45;4.00;;;;;;;-145.79;37.28;75732.78;5254928;28;20043;-75
2023/09/07 14:07:49;;;;;;;4.70;4.25;;;;;;;-145.79;38.13;75732.78;5259605;28;20043;-78
2023/09/07 14:10:21;;;;;;;5.97;4.32;;;;;;;-145.79;37.78;75724.31;5251342;28;20069;-76
2023/09/07 14:12:52;;;;;;;6.30;4.18;;;;;;;-145.79;37.72;75737.00;5258939;28;20037;-77
2023/09/07 14:15:23;;;;;;;4.18;3.78;;;;;;;-145.79;37.72;75728.53;5259820;28;20072;-76
2023/09/07 14:17:55;;;;;;;4.20;3.80;;;;;;;-145.79;37.92;75732.78;5257204;28;20025;-75
2023/09/07 14:20:26;;;;;;;4.88;3.97;;;;;;;-145.79;36.91;75724.31;5257528;28;20032;-77
2023/09/07 14:22:58;;;;;;;5.60;4.55;;;;;;;-145.79;37.62;75745.50;5259521;28;20041;-78
2023/09/07 14:25:30;;;;;;;6.68;4.70;;;;;;;-145.79;38.02;75726.41;5259120;28;20037;-78
2023/09/07 14:28:01;;;;;;;5.30;4.25;;;;;;;-145.79;37.89;75747.59;5259503;27;20422;-77
2023/09/07 14:30:33;;;;;;;4.22;3.83;;;;;;;-145.79;38.18;75737.00;5258247;28;20025;-76
2023/09/07 14:33:04;;;;;;;4.65;4.10;;;;;;;-145.79;38.08;75734.91;5258684;28;20028;-75
2023/09/07 14:35:36;;;;;;;4.88;3.95;;;;;;;-145.79;38.15;75745.50;5255173;28;20436;-77
2023/09/07 14:38:07;;;;;;;8.07;7.28;;;;;;;-145.79;38.35;75743.38;5257352;28;20486;-76
2023/09/07 14:40:38;;;;;;;5.80;4.18;;;;;;;-145.79;38.37;75749.72;5257546;28;20025;-75
2023/09/07 14:43:10;;;;;;;5.22;4.18;;;;;;;-145.79;37.94;75747.59;5252572;28;20044;-75
2023/09/07 14:45:43;;;;;;;3.90;3.55;;;;;;;-145.79;38.20;75753.97;5259421;28;20456;-75
2023/09/07 14:48:14;;;;;;;4.78;4.35;;;;;;;-145.79;38.22;75760.31;5257866;28;20029;-77
2023/09/07 14:50:45;;;;;;;6.07;5.43;;;;;;;-145.79;38.32;75766.69;5250756;28;20406;-78
2023/09/07 14:53:17;;;;;;;7.30;4.28;;;;;;;-145.79;38.05;75766.69;5250869;28;20120;-76
2023/09/07 14:55:49;;;;;;;6.57;4.20;;;;;;;-145.79;38.66;75775.16;5259088;28;20025;-77
2023/09/07 14:58:20;;;;;;;5.18;4.00;;;;;;;-145.79;38.82;75764.56;5254866;28;20025;-77
2023/09/07 15:00:51;;;;;;;4.00;3.60;;;;;;;-145.79;38.81;75760.31;5258014;28;20056;-76
2023/09/07 15:03:23;;;;;;;5.32;4.53;;;;;;;-145.79;39.27;75749.72;5258470;28;20111;-76
2023/09/07 15:05:55;;;;;;;4.60;4.15;;;;;;;-145.79;38.58;75766.69;5258863;28;20061;-76
2023/09/07 15:08:26;;;;;;;7.78;4.57;;;;;;;-145.79;37.78;75770.91;5253187;28;20037;-76
2023/09/07 15:10:58;;;;;;;4.03;3.63;;;;;;;-145.79;38.18;75789.97;5259119;28;20065;-76
2023/09/07 15:13:29;;;;;;;4.60;4.20;;;;;;;-145.79;38.43;75787.88;5257732;28;20029;-79
2023/09/07 15:16:01;;;;;;;5.88;5.28;;;;;;;-145.79;38.55;75785.75;5258008;28;20033;-78
2023/09/07 15:18:32;;;;;;;4.68;4.25;;;;;;;-145.79;38.75;75787.88;5259020;28;20025;-78
2023/09/07 15:21:03;;;;;;;6.80;5.13;;;;;;;-145.79;38.86;75796.34;5258414;28;20052;-78
2023/09/07 15:23:36;;;;;;;7.43;5.75;;;;;;;-145.79;39.02;75792.09;5255720;28;20029;-76
2023/09/07 15:26:07;;;;;;;4.15;3.75;;;;;;;-145.79;39.05;75796.34;5254807;28;20021;-79
2023/09/07 15:28:39;;;;;;;5.50;4.70;;;;;;;-145.79;39.14;75815.41;5258044;28;20025;-82
2023/09/07 15:31:11;;;;;;;5.40;4.78;;;;;;;-145.79;38.88;75800.56;5258648;28;20078;-79
2023/09/07 15:33:42;;;;;;;12.45;11.15;;;;;;;-145.79;38.78;75792.09;5256722;28;20037;-79
2023/09/07 15:36:15;;;;;;;24.27;22.02;;;;;;;-145.79;39.33;75792.09;5257147;28;20036;-76
2023/09/07 15:38:47;;;;;;;5.35;4.32;;;;;;;-145.79;39.30;75789.97;5258298;28;20069;-77
2023/09/07 15:41:19;;;;;;;4.93;3.97;;;;;;;-145.79;39.28;75800.56;5258399;28;20029;-82
2023/09/07 15:43:50;;;;;;;4.72;4.32;;;;;;;-145.79;39.64;75804.81;5253638;27;20021;-80
2023/09/07 15:46:22;;;;;;;6.97;4.05;;;;;;;-145.79;39.18;75811.19;5262100;28;20459;-79
2023/09/07 15:48:53;;;;;;;5.35;3.95;;;;;;;-145.79;38.97;75806.94;5260341;28;20032;-81
2023/09/07 15:51:25;;;;;;;5.03;4.60;;;;;;;-145.79;39.15;75804.81;5261172;28;20119;-79
2023/09/07 15:53:56;;;;;;;5.00;4.60;;;;;;;-145.79;39.60;75809.06;5261506;28;20364;-76
2023/09/07 15:56:27;;;;;;;6.13;4.50;;;;;;;-145.79;38.64;75819.66;5261827;28;20036;-76
2023/09/07 15:58:59;;;;;;;6.38;4.05;;;;;;;-145.79;39.36;75804.81;5261428;28;20496;-75
2023/09/07 16:01:30;;;;;;;6.28;4.50;;;;;;;-145.79;38.70;75811.19;5253156;28;20048;-75
2023/09/07 16:04:02;;;;;;;6.32;4.63;;;;;;;-145.79;38.67;75813.28;5260405;28;20035;-69
2023/09/07 16:06:33;;;;;;;7.38;4.88;;;;;;;-145.79;39.06;75796.34;5260782;28;20023;-71
2023/09/07 16:09:05;;;;;;;6.03;4.30;;;;;;;-145.79;38.93;75796.34;5261510;28;20033;-70
2023/09/07 16:11:36;;;;;;;4.60;4.20;;;;;;;-145.79;39.22;75794.22;5260712;28;20514;-65
2023/09/07 16:14:08;;;;;;;7.43;4.00;;;;;;;-145.79;38.85;75796.34;5261604;28;20025;-66
2023/09/07 16:16:39;;;;;;;4.97;4.40;;;;;;;-145.79;39.08;75798.47;5258988;28;20078;-66
2023/09/07 16:19:10;;;;;;;3.88;3.58;;;;;;;-145.79;38.71;75796.34;5261061;28;20486;-67
2023/09/07 16:21:42;;;;;;;6.35;4.45;;;;;;;-145.79;38.67;75792.09;5259883;28;20040;-66
2023/09/07 16:24:14;;;;;;;4.82;4.28;;;;;;;-145.79;38.85;75800.56;5261585;28;20021;-66
2023/09/07 16:26:45;;;;;;;4.32;3.92;;;;;;;-145.79;39.06;75794.22;5260673;28;20049;-66
2023/09/07 16:29:16;;;;;;;4.50;4.10;;;;;;;-145.79;38.93;75796.34;5261490;28;20029;-66
2023/09/07 16:31:48;;;;;;;6.15;5.35;;;;;;;-145.79;39.15;75796.34;5260653;28;20033;-66
2023/09/07 16:34:20;;;;;;;6.38;4.30;;;;;;;-145.79;39.39;75819.66;5257033;27;20112;-66
2023/09/07 16:36:51;;;;;;;5.25;4.75;;;;;;;-145.79;39.56;75817.53;5261422;28;20032;-67
2023/09/07 16:39:23;;;;;;;5.82;5.22;;;;;;;-145.79;39.78;75821.75;5260558;28;20100;-67
2023/09/07 16:41:54;;;;;;;5.60;4.45;;;;;;;-145.79;40.01;75842.97;5261653;28;20039;-66
2023/09/07 16:44:25;;;;;;;6.40;4.43;;;;;;;-145.79;39.98;75838.72;5260988;28;20097;-66
2023/09/07 16:46:56;;;;;;;4.65;4.22;;;;;;;-145.79;40.05;75859.91;5260730;27;20025;-67
2023/09/07 16:49:29;;;;;;;6.32;4.32;;;;;;;-145.79;39.99;75866.25;5257892;28;20496;-67
2023/09/07 16:52:01;;;;;;;4.70;4.15;;;;;;;-145.79;39.89;75857.78;5250179;28;20033;-67
2023/09/07 16:54:32;;;;;;;4.93;4.15;;;;;;;-145.79;40.49;75872.63;5259842;28;20035;-66
